createdAt,value
2018-11-27T00:01:12.478Z,100639.81
2018-11-27T00:03:47.214Z,100639.70
2018-11-27T00:06:16.800Z,100629.97
2018-11-27T00:08:46.654Z,100637.17
2018-11-27T00:11:16.160Z,100625.77
2018-11-27T00:13:44.635Z,100634.22
2018-11-27T00:16:13.634Z,100632.16
2018-11-27T00:18:42.795Z,100638.35
2018-11-27T00:21:12.172Z,100638.39
2018-11-27T00:23:41.713Z,100642.61
2018-11-27T00:26:10.727Z,100646.39
2018-11-27T00:28:40.339Z,100648.45
2018-11-27T00:31:08.764Z,100646.39
2018-11-27T00:33:38.339Z,100652.28
2018-11-27T00:36:08.712Z,100652.70
2018-11-27T00:38:37.767Z,100657.26
2018-11-27T00:41:07.341Z,100655.61
2018-11-27T00:43:36.505Z,100661.04
2018-11-27T00:46:05.034Z,100664.91
2018-11-27T00:48:34.643Z,100666.47
2018-11-27T00:51:05.750Z,100667.27
2018-11-27T00:53:35.536Z,100667.74
2018-11-27T00:56:05.061Z,100669.39
2018-11-27T00:58:34.776Z,100672.37
2018-11-27T01:01:05.425Z,100669.72
2018-11-27T01:03:34.513Z,100664.25
2018-11-27T01:06:04.005Z,100670.59
2018-11-27T01:08:32.875Z,100673.00
2018-11-27T01:11:01.317Z,100673.45
2018-11-27T01:13:29.984Z,100679.36
2018-11-27T01:15:58.913Z,100683.94
2018-11-27T01:18:27.364Z,100678.51
2018-11-27T01:20:56.433Z,100686.05
2018-11-27T01:23:25.134Z,100684.32
2018-11-27T01:25:54.177Z,100689.80
2018-11-27T01:28:23.128Z,100694.04
2018-11-27T01:30:52.432Z,100699.89
2018-11-27T01:33:29.796Z,100701.99
2018-11-27T01:35:58.601Z,100699.77
2018-11-27T01:38:27.348Z,100699.77
2018-11-27T01:40:55.992Z,100707.80
2018-11-27T01:43:24.743Z,100703.55
2018-11-27T01:45:53.909Z,100700.98
2018-11-27T01:48:22.702Z,100710.32
2018-11-27T01:50:51.429Z,100706.16
2018-11-27T01:53:19.887Z,100707.80
2018-11-27T01:55:48.331Z,100708.69
2018-11-27T01:58:17.167Z,100712.84
2018-11-27T02:00:46.057Z,100708.55
2018-11-27T02:03:14.434Z,100710.98
2018-11-27T02:05:42.905Z,100712.77
2018-11-27T02:08:11.828Z,100710.61
2018-11-27T02:10:40.661Z,100710.98
2018-11-27T02:13:09.347Z,100711.83
2018-11-27T02:15:37.798Z,100707.61
2018-11-27T02:18:07.963Z,100714.30
2018-11-27T02:20:37.281Z,100715.10
2018-11-27T02:23:06.659Z,100709.17
2018-11-27T02:25:35.511Z,100709.64
2018-11-27T02:28:04.165Z,100708.74
2018-11-27T02:30:32.926Z,100702.48
2018-11-27T02:33:01.630Z,100702.81
2018-11-27T02:35:30.379Z,100705.70
2018-11-27T02:37:59.549Z,100707.34
2018-11-27T02:40:28.102Z,100714.91
2018-11-27T02:42:57.607Z,100715.33
2018-11-27T02:45:26.634Z,100712.02
2018-11-27T02:47:56.071Z,100721.64
2018-11-27T02:50:25.545Z,100717.73
2018-11-27T02:52:54.756Z,100722.77
2018-11-27T02:55:24.584Z,100734.55
2018-11-27T02:57:53.391Z,100729.41
2018-11-27T03:00:25.926Z,100730.30
2018-11-27T03:02:55.514Z,100735.67
2018-11-27T03:05:31.392Z,100733.89
2018-11-27T03:08:00.299Z,100737.25
2018-11-27T03:10:28.725Z,100737.58
2018-11-27T03:12:57.518Z,100739.58
2018-11-27T03:15:26.514Z,100732.75
2018-11-27T03:17:55.605Z,100735.22
2018-11-27T03:20:25.578Z,100735.81
2018-11-27T03:22:54.187Z,100737.70
2018-11-27T03:25:23.818Z,100739.17
2018-11-27T03:27:53.781Z,100735.81
2018-11-27T03:30:23.804Z,100738.13
2018-11-27T03:32:52.765Z,100738.89
2018-11-27T03:35:22.720Z,100743.52
2018-11-27T03:37:51.699Z,100739.67
2018-11-27T03:40:22.617Z,100746.92
2018-11-27T03:42:51.109Z,100745.02
2018-11-27T03:45:20.547Z,100745.81
2018-11-27T03:48:20.402Z,100750.20
2018-11-27T03:50:49.245Z,100744.47
2018-11-27T03:53:18.597Z,100752.02
2018-11-27T03:55:49.099Z,100750.33
2018-11-27T03:58:17.822Z,100752.45
2018-11-27T04:00:47.134Z,100751.68
2018-11-27T04:03:15.913Z,100751.61
2018-11-27T04:05:45.123Z,100763.00
2018-11-27T04:08:14.071Z,100762.05
2018-11-27T04:10:42.619Z,100760.30
2018-11-27T04:13:11.071Z,100761.26
2018-11-27T04:15:39.613Z,100763.77
2018-11-27T04:18:08.106Z,100762.77
2018-11-27T04:20:36.600Z,100768.39
2018-11-27T04:23:05.183Z,100765.87
2018-11-27T04:25:33.718Z,100769.34
2018-11-27T04:28:02.150Z,100769.56
2018-11-27T04:30:32.157Z,100776.95
2018-11-27T04:33:00.959Z,100779.63
2018-11-27T04:35:30.432Z,100779.86
2018-11-27T04:37:59.689Z,100784.53
2018-11-27T04:40:28.671Z,100790.06
2018-11-27T04:42:57.721Z,100789.81
2018-11-27T04:45:27.394Z,100789.97
2018-11-27T04:47:56.672Z,100787.80
2018-11-27T04:50:25.676Z,100788.98
2018-11-27T04:52:54.570Z,100786.42
2018-11-27T04:55:23.418Z,100789.08
2018-11-27T05:01:26.013Z,100799.20
2018-11-27T05:03:55.921Z,100794.61
2018-11-27T05:06:25.770Z,100802.53
2018-11-27T05:08:56.228Z,100796.61
2018-11-27T05:11:27.467Z,100798.90
2018-11-27T05:13:56.592Z,100808.83
2018-11-27T05:16:27.255Z,100801.14
2018-11-27T05:18:57.684Z,100803.41
2018-11-27T05:21:27.781Z,100803.22
2018-11-27T05:23:58.099Z,100800.13
2018-11-27T05:26:27.610Z,100803.07
2018-11-27T05:28:57.583Z,100804.11
2018-11-27T05:31:28.015Z,100805.58
2018-11-27T05:33:57.846Z,100808.56
2018-11-27T05:36:27.882Z,100810.67
2018-11-27T05:38:57.809Z,100811.64
2018-11-27T05:41:27.818Z,100808.01
2018-11-27T05:43:58.460Z,100812.12
2018-11-27T05:46:29.080Z,100821.41
2018-11-27T05:48:59.564Z,100819.63
2018-11-27T05:51:30.386Z,100827.57
2018-11-27T05:54:00.877Z,100820.44
2018-11-27T05:56:31.447Z,100821.41
2018-11-27T05:59:02.186Z,100828.55
2018-11-27T06:01:30.799Z,100828.26
2018-11-27T06:04:00.950Z,100826.69
2018-11-27T06:06:31.898Z,100829.73
2018-11-27T06:09:01.547Z,100830.17
2018-11-27T06:11:30.921Z,100831.16
2018-11-27T06:13:59.447Z,100838.88
2018-11-27T06:16:28.906Z,100842.41
2018-11-27T06:18:57.458Z,100844.63
2018-11-27T06:21:28.612Z,100844.05
2018-11-27T06:23:59.910Z,100848.72
2018-11-27T06:26:30.608Z,100856.23
2018-11-27T06:29:01.397Z,100860.22
2018-11-27T06:31:31.550Z,100862.61
2018-11-27T06:34:00.417Z,100865.97
2018-11-27T06:36:37.803Z,100877.50
2018-11-27T06:39:08.813Z,100871.52
2018-11-27T06:41:37.394Z,100871.19
2018-11-27T06:44:08.642Z,100887.04
2018-11-27T06:46:37.398Z,100893.66
2018-11-27T06:49:08.327Z,100901.61
2018-11-27T06:51:36.800Z,100902.02
2018-11-27T06:54:06.537Z,100906.12
2018-11-27T06:56:35.188Z,100906.12
2018-11-27T06:59:03.725Z,100903.06
2018-11-27T07:01:32.330Z,100918.00
2018-11-27T07:04:00.724Z,100927.64
2018-11-27T07:06:30.559Z,100931.00
2018-11-27T07:08:59.168Z,100939.55
2018-11-27T07:11:27.599Z,100941.28
2018-11-27T07:13:56.068Z,100943.11
2018-11-27T07:16:24.524Z,100938.77
2018-11-27T07:18:53.001Z,100945.05
2018-11-27T07:21:21.384Z,100950.17
2018-11-27T07:23:50.554Z,100951.09
2018-11-27T07:26:19.024Z,100958.63
2018-11-27T07:28:47.529Z,100960.36
2018-11-27T07:31:16.185Z,100969.73
2018-11-27T07:33:44.646Z,100969.38
2018-11-27T07:36:13.148Z,100966.97
2018-11-27T07:38:41.914Z,100975.90
2018-11-27T07:41:10.703Z,100980.75
2018-11-27T07:43:39.697Z,100983.47
2018-11-27T07:46:08.948Z,100992.23
2018-11-27T07:48:37.708Z,100999.19
2018-11-27T07:51:07.849Z,101000.45
2018-11-27T07:53:37.205Z,101006.39
2018-11-27T07:56:06.628Z,101008.39
2018-11-27T07:58:35.305Z,101006.97
2018-11-27T08:01:04.222Z,101003.58
2018-11-27T08:03:33.097Z,101007.98
2018-11-27T08:06:02.043Z,101011.83
2018-11-27T08:08:31.027Z,101016.14
2018-11-27T08:10:59.967Z,101019.41
2018-11-27T08:13:28.879Z,101025.69
2018-11-27T08:15:58.319Z,101028.77
2018-11-27T08:18:27.364Z,101033.97
2018-11-27T08:20:56.268Z,101027.28
2018-11-27T08:23:25.059Z,101027.42
2018-11-27T08:25:53.866Z,101040.83
2018-11-27T08:28:22.729Z,101040.73
2018-11-27T08:30:51.833Z,101047.76
2018-11-27T08:33:20.739Z,101052.20
2018-11-27T08:35:50.279Z,101049.52
2018-11-27T08:38:49.547Z,101047.18
2018-11-27T08:41:18.403Z,101052.30
2018-11-27T08:43:47.573Z,101058.72
2018-11-27T08:46:16.704Z,101061.92
2018-11-27T08:48:46.201Z,101062.43
2018-11-27T08:51:14.974Z,101060.83
2018-11-27T08:53:43.932Z,101069.75
2018-11-27T08:56:12.845Z,101067.84
2018-11-27T08:58:41.819Z,101073.22
2018-11-27T09:01:11.226Z,101067.94
2018-11-27T09:03:40.531Z,101068.84
2018-11-27T09:06:09.487Z,101071.59
2018-11-27T09:08:38.528Z,101062.80
2018-11-27T09:11:07.739Z,101065.47
2018-11-27T09:13:37.444Z,101067.19
2018-11-27T09:16:07.120Z,101071.78
2018-11-27T09:18:36.430Z,101081.17
2018-11-27T09:21:05.232Z,101088.30
2018-11-27T09:23:34.179Z,101091.39
2018-11-27T09:26:02.933Z,101087.19
2018-11-27T09:28:31.762Z,101090.81
2018-11-27T09:31:00.846Z,101102.59
2018-11-27T09:33:29.881Z,101100.23
2018-11-27T09:35:58.677Z,101109.40
2018-11-27T09:38:27.420Z,101110.66
2018-11-27T09:40:56.000Z,101114.76
2018-11-27T09:43:24.516Z,101114.53
2018-11-27T09:45:53.066Z,101114.38
2018-11-27T09:48:21.616Z,101111.92
2018-11-27T09:50:50.064Z,101121.79
2018-11-27T09:53:18.856Z,101122.98
2018-11-27T09:55:47.676Z,101128.44
2018-11-27T09:58:16.521Z,101121.34
2018-11-27T10:00:45.314Z,101123.31
2018-11-27T10:03:15.529Z,101123.42
2018-11-27T10:05:44.395Z,101117.55
2018-11-27T10:08:13.291Z,101127.50
2018-11-27T10:10:42.204Z,101119.45
2018-11-27T10:13:11.050Z,101118.98
2018-11-27T10:15:39.800Z,101123.78
2018-11-27T10:18:08.840Z,101122.75
2018-11-27T10:20:39.912Z,101125.30
2018-11-27T10:23:12.580Z,101128.11
2018-11-27T10:25:41.337Z,101135.17
2018-11-27T10:28:10.168Z,101133.36
2018-11-27T10:30:39.345Z,101136.47
2018-11-27T10:33:11.396Z,101132.42
2018-11-27T10:35:45.405Z,101124.39
2018-11-27T10:38:15.257Z,101115.42
2018-11-27T10:40:43.944Z,101122.39
2018-11-27T10:43:12.443Z,101129.38
2018-11-27T10:45:40.928Z,101127.01
2018-11-27T10:48:09.589Z,101132.05
2018-11-27T10:50:38.522Z,101115.63
2018-11-27T10:53:08.929Z,101117.16
2018-11-27T10:55:37.871Z,101116.63
2018-11-27T10:58:06.731Z,101111.52
2018-11-27T11:00:40.404Z,101123.55
2018-11-27T11:03:24.943Z,101124.87
2018-11-27T11:05:55.286Z,101118.05
2018-11-27T11:08:23.843Z,101122.65
2018-11-27T11:10:52.505Z,101120.23
2018-11-27T11:13:22.001Z,101125.17
2018-11-27T11:15:50.943Z,101129.15
2018-11-27T11:18:19.576Z,101115.98
2018-11-27T11:20:48.274Z,101128.60
2018-11-27T11:23:16.831Z,101128.33
2018-11-27T11:25:45.317Z,101129.28
2018-11-27T11:28:13.675Z,101126.98
2018-11-27T11:30:42.095Z,101130.05
2018-11-27T11:33:10.861Z,101128.81
2018-11-27T11:35:39.358Z,101129.15
2018-11-27T11:38:07.757Z,101130.57
2018-11-27T11:40:36.792Z,101131.40
2018-11-27T11:43:06.028Z,101136.00
2018-11-27T11:45:34.431Z,101132.38
2018-11-27T11:48:03.365Z,101143.06
2018-11-27T11:50:33.215Z,101137.02
2018-11-27T11:53:07.856Z,101138.92
2018-11-27T11:55:36.780Z,101138.77
2018-11-27T11:58:06.045Z,101145.89
2018-11-27T12:00:38.190Z,101144.28
2018-11-27T12:03:07.917Z,101142.47
2018-11-27T12:05:38.249Z,101151.67
2018-11-27T12:08:07.860Z,101150.23
2018-11-27T12:10:37.473Z,101148.80
2018-11-27T12:13:07.744Z,101155.91
2018-11-27T12:15:37.610Z,101158.16
2018-11-27T12:18:07.247Z,101152.36
2018-11-27T12:20:36.038Z,101149.33
2018-11-27T12:23:05.630Z,101156.56
2018-11-27T12:25:34.386Z,101150.74
2018-11-27T12:28:03.225Z,101155.87
2018-11-27T12:30:32.137Z,101161.52
2018-11-27T12:33:00.831Z,101163.78
2018-11-27T12:35:29.729Z,101164.49
2018-11-27T12:37:58.670Z,101163.29
2018-11-27T12:40:28.691Z,101166.72
2018-11-27T12:42:57.713Z,101169.73
2018-11-27T12:45:29.037Z,101172.45
2018-11-27T12:47:58.878Z,101178.71
2018-11-27T12:50:38.694Z,101171.84
2018-11-27T12:53:08.584Z,101178.77
2018-11-27T12:55:39.810Z,101180.50
2018-11-27T12:58:08.774Z,101170.08
2018-11-27T13:00:37.533Z,101167.12
2018-11-27T13:03:06.709Z,101164.70
2018-11-27T13:05:38.963Z,101161.47
2018-11-27T13:08:23.532Z,101160.32
2018-11-27T13:10:52.268Z,101164.54
2018-11-27T13:13:20.877Z,101165.23
2018-11-27T13:15:49.528Z,101162.92
2018-11-27T13:18:18.161Z,101160.59
2018-11-27T13:20:46.769Z,101156.78
2018-11-27T13:23:15.510Z,101161.66
2018-11-27T13:25:44.114Z,101160.84
2018-11-27T13:28:14.014Z,101168.72
2018-11-27T13:30:46.987Z,101168.22
2018-11-27T13:33:23.501Z,101165.78
2018-11-27T13:35:52.689Z,101165.70
2018-11-27T13:38:21.091Z,101169.86
2018-11-27T13:40:49.876Z,101162.65
2018-11-27T13:43:22.860Z,101168.25
2018-11-27T13:45:51.688Z,101168.39
2018-11-27T13:48:20.911Z,101165.48
2018-11-27T13:50:49.600Z,101167.30
2018-11-27T13:53:18.228Z,101166.22
2018-11-27T13:55:46.741Z,101167.59
2018-11-27T13:58:15.189Z,101171.44
2018-11-27T14:00:43.617Z,101172.78
2018-11-27T14:03:12.141Z,101188.47
2018-11-27T14:05:40.627Z,101184.48
2018-11-27T14:08:10.048Z,101178.67
2018-11-27T14:10:39.232Z,101180.81
2018-11-27T14:13:09.166Z,101180.70
2018-11-27T14:15:38.289Z,101181.72
2018-11-27T14:18:07.919Z,101175.03
2018-11-27T14:20:36.973Z,101180.34
2018-11-27T14:23:06.328Z,101184.41
2018-11-27T14:25:34.997Z,101186.57
2018-11-27T14:28:03.777Z,101188.92
2018-11-27T14:30:32.539Z,101189.31
2018-11-27T14:33:01.273Z,101193.45
2018-11-27T14:35:30.349Z,101191.63
2018-11-27T14:37:59.020Z,101195.91
2018-11-27T14:40:29.095Z,101198.73
2018-11-27T14:42:57.533Z,101196.97
2018-11-27T14:45:27.111Z,101203.55
2018-11-27T14:47:56.693Z,101206.98
2018-11-27T14:50:25.152Z,101215.63
2018-11-27T14:52:53.701Z,101219.82
2018-11-27T14:55:28.323Z,101217.97
2018-11-27T14:57:57.220Z,101214.62
2018-11-27T15:00:27.777Z,101219.59
2018-11-27T15:02:57.324Z,101220.84
2018-11-27T15:05:32.216Z,101222.81
2018-11-27T15:08:01.067Z,101226.03
2018-11-27T15:10:30.157Z,101217.84
2018-11-27T15:12:58.578Z,101209.87
2018-11-27T15:15:27.210Z,101209.66
2018-11-27T15:17:57.277Z,101215.11
2018-11-27T15:20:25.843Z,101217.08
2018-11-27T15:22:54.355Z,101222.94
2018-11-27T15:25:22.842Z,101216.01
2018-11-27T15:27:51.778Z,101216.36
2018-11-27T15:30:23.229Z,101217.05
2018-11-27T15:32:52.896Z,101221.94
2018-11-27T15:35:21.357Z,101224.80
2018-11-27T15:37:51.723Z,101219.61
2018-11-27T15:40:24.413Z,101220.62
2018-11-27T15:42:53.263Z,101221.50
2018-11-27T15:45:26.838Z,101221.50
2018-11-27T15:47:55.511Z,101223.42
2018-11-27T15:50:26.543Z,101225.78
2018-11-27T15:53:25.581Z,101231.67
2018-11-27T15:55:54.132Z,101234.70
2018-11-27T15:58:24.151Z,101237.56
2018-11-27T16:00:53.825Z,101234.59
2018-11-27T16:03:24.313Z,101229.94
2018-11-27T16:05:54.562Z,101228.48
2018-11-27T16:08:24.677Z,101233.33
2018-11-27T16:10:53.499Z,101232.41
2018-11-27T16:13:24.405Z,101239.43
2018-11-27T16:15:54.632Z,101239.80
2018-11-27T16:18:25.415Z,101235.66
2018-11-27T16:20:54.959Z,101241.53
2018-11-27T16:23:25.904Z,101245.19
2018-11-27T16:25:55.422Z,101244.92
2018-11-27T16:28:26.694Z,101250.23
2018-11-27T16:30:57.236Z,101249.95
2018-11-27T16:33:26.380Z,101257.61
2018-11-27T16:35:58.137Z,101259.45
2018-11-27T16:38:31.384Z,101258.06
2018-11-27T16:41:00.336Z,101254.35
2018-11-27T16:43:29.111Z,101254.52
2018-11-27T16:45:57.612Z,101254.45
2018-11-27T16:48:26.518Z,101257.85
2018-11-27T16:50:56.707Z,101264.01
2018-11-27T16:53:25.608Z,101266.17
2018-11-27T16:55:54.077Z,101270.83
2018-11-27T16:58:22.526Z,101275.52
2018-11-27T17:00:51.019Z,101271.39
2018-11-27T17:03:19.515Z,101269.55
2018-11-27T17:05:47.937Z,101267.27
2018-11-27T17:08:16.534Z,101274.22
2018-11-27T17:10:46.421Z,101268.71
2018-11-27T17:13:15.918Z,101266.42
2018-11-27T17:15:44.440Z,101257.95
2018-11-27T17:18:13.877Z,101263.50
2018-11-27T17:20:43.915Z,101272.13
2018-11-27T17:23:13.884Z,101277.82
2018-11-27T17:25:42.291Z,101272.68
2018-11-27T17:28:15.297Z,101281.00
2018-11-27T17:30:48.634Z,101280.00
2018-11-27T17:33:21.533Z,101282.52
2018-11-27T17:35:51.186Z,101284.11
2018-11-27T17:38:20.575Z,101283.73
2018-11-27T17:40:50.171Z,101282.52
2018-11-27T17:43:18.565Z,101281.85
2018-11-27T17:45:47.119Z,101281.27
2018-11-27T17:48:15.653Z,101282.92
2018-11-27T17:50:44.148Z,101292.91
2018-11-27T17:53:12.658Z,101294.94
2018-11-27T17:55:41.791Z,101298.72
2018-11-27T17:58:10.765Z,101304.22
2018-11-27T18:00:39.361Z,101302.56
2018-11-27T18:03:09.100Z,101298.72
2018-11-27T18:05:37.569Z,101306.48
2018-11-27T18:08:07.331Z,101313.76
2018-11-27T18:10:36.485Z,101319.53
2018-11-27T18:13:07.595Z,101316.09
2018-11-27T18:15:38.577Z,101313.23
2018-11-27T18:18:09.367Z,101317.86
2018-11-27T18:20:39.608Z,101318.72
2018-11-27T18:23:09.373Z,101319.72
2018-11-27T18:25:38.348Z,101324.89
2018-11-27T18:28:07.973Z,101331.43
2018-11-27T18:30:38.157Z,101338.63
2018-11-27T18:33:08.033Z,101335.41
2018-11-27T18:35:38.361Z,101337.66
2018-11-27T18:38:08.199Z,101333.69
2018-11-27T18:40:38.425Z,101340.70
2018-11-27T18:43:07.643Z,101334.20
2018-11-27T18:45:37.193Z,101328.12
2018-11-27T18:48:06.610Z,101333.88
2018-11-27T18:50:36.246Z,101325.89
2018-11-27T18:53:05.101Z,101321.23
2018-11-27T18:55:33.962Z,101326.22
2018-11-27T18:58:04.542Z,101322.90
2018-11-27T19:00:33.783Z,101329.19
2018-11-27T19:03:02.257Z,101333.77
2018-11-27T19:05:31.702Z,101337.70
2018-11-27T19:08:00.175Z,101340.22
2018-11-27T19:10:31.951Z,101344.88
2018-11-27T19:13:00.834Z,101346.98
2018-11-27T19:15:32.988Z,101356.52
2018-11-27T19:18:03.536Z,101358.09
2018-11-27T19:20:33.087Z,101365.95
2018-11-27T19:23:02.517Z,101370.45
2018-11-27T19:25:31.381Z,101381.88
2018-11-27T19:28:02.265Z,101387.64
2018-11-27T19:30:32.263Z,101388.82
2018-11-27T19:32:59.050Z,101392.47
2018-11-27T19:35:27.681Z,101390.28
2018-11-27T19:37:57.001Z,101389.42
2018-11-27T19:40:26.996Z,101395.63
2018-11-27T19:42:57.141Z,101394.25
2018-11-27T19:45:27.282Z,101392.59
2018-11-27T19:47:56.257Z,101393.52
2018-11-27T19:50:24.796Z,101390.48
2018-11-27T19:52:56.101Z,101392.79
2018-11-27T19:55:24.544Z,101391.58
2018-11-27T19:57:55.196Z,101391.05
2018-11-27T20:00:26.880Z,101397.81
2018-11-27T20:02:55.734Z,101404.34
2018-11-27T20:05:26.442Z,101404.55
2018-11-27T20:07:54.905Z,101409.81
2018-11-27T20:10:27.114Z,101408.63
2018-11-27T20:12:55.586Z,101408.08
2018-11-27T20:15:26.082Z,101409.81
2018-11-27T20:17:56.004Z,101412.64
2018-11-27T20:20:25.528Z,101407.22
2018-11-27T20:22:54.751Z,101409.84
2018-11-27T20:28:24.697Z,101400.37
2018-11-27T20:30:54.263Z,101391.20
2018-11-27T20:33:24.703Z,101408.38
2018-11-27T20:35:56.047Z,101410.81
2018-11-27T20:38:26.277Z,101404.94
2018-11-27T20:40:56.461Z,101413.33
2018-11-27T20:43:27.415Z,101409.59
2018-11-27T20:45:56.444Z,101413.36
2018-11-27T20:48:25.527Z,101416.75
2018-11-27T20:50:55.821Z,101413.92
2018-11-27T20:53:24.319Z,101405.55
2018-11-27T20:55:54.241Z,101404.33
2018-11-27T20:58:23.850Z,101403.72
2018-11-27T21:00:55.108Z,101399.87
2018-11-27T21:03:26.039Z,101399.34
2018-11-27T21:05:54.987Z,101401.53
2018-11-27T21:11:08.383Z,101400.39
2018-11-27T21:13:35.082Z,101398.06
2018-11-27T21:16:03.674Z,101403.33
2018-11-27T21:18:34.101Z,101401.27
2018-11-27T21:21:04.762Z,101397.38
2018-11-27T21:23:33.407Z,101401.67
2018-11-27T21:26:06.246Z,101402.95
2018-11-27T21:28:35.789Z,101403.97
2018-11-27T21:31:06.779Z,101404.05
2018-11-27T21:33:36.715Z,101412.05
2018-11-27T21:36:05.804Z,101409.22
2018-11-27T21:38:34.413Z,101408.88
2018-11-27T21:41:03.403Z,101403.98
2018-11-27T21:43:33.309Z,101405.51
2018-11-27T21:46:02.889Z,101403.64
2018-11-27T21:48:33.105Z,101415.30
2018-11-27T21:51:03.158Z,101410.18
2018-11-27T21:53:32.821Z,101413.36
2018-11-27T21:56:02.211Z,101415.47
2018-11-27T21:58:34.420Z,101418.12
2018-11-27T22:01:03.069Z,101423.77
2018-11-27T22:03:32.889Z,101424.72
2018-11-27T22:06:02.286Z,101433.35
2018-11-27T22:08:30.869Z,101437.11
2018-11-27T22:11:02.756Z,101425.12
2018-11-27T22:13:33.713Z,101428.75
2018-11-27T22:16:02.334Z,101428.83
2018-11-27T22:18:30.991Z,101430.36
2018-11-27T22:20:59.490Z,101424.80
2018-11-27T22:23:30.031Z,101432.20
2018-11-27T22:26:11.340Z,101436.81
2018-11-27T22:29:12.016Z,101441.03
2018-11-27T22:31:41.189Z,101433.90
2018-11-27T22:34:09.987Z,101431.56
2018-11-27T22:36:38.601Z,101443.22
2018-11-27T22:39:08.965Z,101452.27
2018-11-27T22:41:40.295Z,101449.55
2018-11-27T22:44:09.114Z,101446.72
2018-11-27T22:46:40.337Z,101434.80
2018-11-27T22:49:11.333Z,101434.09
2018-11-27T22:51:42.334Z,101432.97
2018-11-27T22:54:12.403Z,101433.59
2018-11-27T22:56:42.576Z,101422.17
2018-11-27T22:59:13.300Z,101416.84
2018-11-27T23:01:43.132Z,101418.64
2018-11-27T23:04:11.846Z,101435.53
2018-11-27T23:06:42.037Z,101443.81
2018-11-27T23:09:11.440Z,101447.58
2018-11-27T23:11:41.452Z,101450.31
2018-11-27T23:14:10.857Z,101449.55
2018-11-27T23:16:41.590Z,101446.64
2018-11-27T23:19:11.811Z,101446.95
2018-11-27T23:21:42.277Z,101432.61
2018-11-27T23:24:13.588Z,101435.44
2018-11-27T23:26:43.489Z,101429.88
2018-11-27T23:29:13.043Z,101438.66
2018-11-27T23:31:42.477Z,101449.77
2018-11-27T23:34:12.377Z,101446.73
2018-11-27T23:36:41.668Z,101440.69
2018-11-27T23:39:11.232Z,101439.12
2018-11-27T23:41:40.837Z,101438.27
2018-11-27T23:44:10.203Z,101436.30
2018-11-27T23:46:41.556Z,101421.16
2018-11-27T23:49:11.812Z,101421.73
2018-11-27T23:51:42.952Z,101418.65
2018-11-27T23:54:13.586Z,101426.26
2018-11-27T23:56:48.599Z,101431.59
2018-11-27T23:59:14.522Z,101436.47
